sensor_id;sensor_type;location;lat;lon;timestamp;P1;durP1;ratioP1;P2;durP2;ratioP2
11414;SDS011;5763;42.714;23.244;2023-03-04T00:02:12;11.18;;;9.20;;
11414;SDS011;5763;42.714;23.244;2023-03-04T00:04:39;10.77;;;9.13;;
11414;SDS011;5763;42.714;23.244;2023-03-04T00:07:05;12.60;;;9.70;;
11414;SDS011;5763;42.714;23.244;2023-03-04T00:09:32;11.45;;;8.93;;
11414;SDS011;5763;42.714;23.244;2023-03-04T00:11:59;11.98;;;9.50;;
11414;SDS011;5763;42.714;23.244;2023-03-04T00:14:27;12.50;;;9.60;;
11414;SDS011;5763;42.714;23.244;2023-03-04T00:16:54;12.27;;;9.85;;
11414;SDS011;5763;42.714;23.244;2023-03-04T00:19:20;12.05;;;9.93;;
11414;SDS011;5763;42.714;23.244;2023-03-04T00:21:47;12.98;;;10.20;;
11414;SDS011;5763;42.714;23.244;2023-03-04T00:24:14;13.88;;;11.27;;
11414;SDS011;5763;42.714;23.244;2023-03-04T00:26:41;15.65;;;10.57;;
11414;SDS011;5763;42.714;23.244;2023-03-04T00:29:07;11.32;;;10.00;;
11414;SDS011;5763;42.714;23.244;2023-03-04T00:31:35;11.20;;;9.75;;
11414;SDS011;5763;42.714;23.244;2023-03-04T00:34:02;13.70;;;10.20;;
11414;SDS011;5763;42.714;23.244;2023-03-04T00:36:29;11.35;;;9.68;;
11414;SDS011;5763;42.714;23.244;2023-03-04T00:38:56;11.60;;;9.27;;
11414;SDS011;5763;42.714;23.244;2023-03-04T00:41:22;12.18;;;9.68;;
11414;SDS011;5763;42.714;23.244;2023-03-04T00:43:49;11.48;;;9.45;;
11414;SDS011;5763;42.714;23.244;2023-03-04T00:46:16;12.90;;;10.20;;
11414;SDS011;5763;42.714;23.244;2023-03-04T00:48:44;11.77;;;9.38;;
11414;SDS011;5763;42.714;23.244;2023-03-04T00:51:11;11.82;;;9.45;;
11414;SDS011;5763;42.714;23.244;2023-03-04T00:53:38;11.43;;;9.25;;
11414;SDS011;5763;42.714;23.244;2023-03-04T00:56:05;11.70;;;9.48;;
11414;SDS011;5763;42.714;23.244;2023-03-04T00:58:33;11.95;;;8.98;;
11414;SDS011;5763;42.714;23.244;2023-03-04T01:00:59;11.80;;;8.45;;
11414;SDS011;5763;42.714;23.244;2023-03-04T01:03:26;11.18;;;8.90;;
11414;SDS011;5763;42.714;23.244;2023-03-04T01:05:56;12.30;;;9.25;;
11414;SDS011;5763;42.714;23.244;2023-03-04T01:08:23;10.25;;;8.00;;
11414;SDS011;5763;42.714;23.244;2023-03-04T01:10:50;12.00;;;9.18;;
11414;SDS011;5763;42.714;23.244;2023-03-04T01:13:17;10.50;;;8.88;;
11414;SDS011;5763;42.714;23.244;2023-03-04T01:15:44;10.57;;;8.48;;
11414;SDS011;5763;42.714;23.244;2023-03-04T01:18:11;10.48;;;8.48;;
11414;SDS011;5763;42.714;23.244;2023-03-04T01:20:37;11.35;;;8.98;;
11414;SDS011;5763;42.714;23.244;2023-03-04T01:23:05;11.75;;;8.52;;
11414;SDS011;5763;42.714;23.244;2023-03-04T01:25:32;9.68;;;8.45;;
11414;SDS011;5763;42.714;23.244;2023-03-04T01:27:59;11.98;;;9.05;;
11414;SDS011;5763;42.714;23.244;2023-03-04T01:30:26;10.77;;;8.55;;
11414;SDS011;5763;42.714;23.244;2023-03-04T01:32:52;9.55;;;8.50;;
11414;SDS011;5763;42.714;23.244;2023-03-04T01:35:19;10.57;;;8.35;;
11414;SDS011;5763;42.714;23.244;2023-03-04T01:37:46;10.43;;;8.77;;
11414;SDS011;5763;42.714;23.244;2023-03-04T01:40:14;10.70;;;8.40;;
11414;SDS011;5763;42.714;23.244;2023-03-04T01:42:42;9.85;;;8.63;;
11414;SDS011;5763;42.714;23.244;2023-03-04T01:45:10;10.60;;;9.13;;
11414;SDS011;5763;42.714;23.244;2023-03-04T01:47:39;9.77;;;8.48;;
11414;SDS011;5763;42.714;23.244;2023-03-04T01:50:14;10.80;;;8.85;;
11414;SDS011;5763;42.714;23.244;2023-03-04T01:52:44;11.48;;;8.75;;
11414;SDS011;5763;42.714;23.244;2023-03-04T01:55:15;10.35;;;8.25;;
11414;SDS011;5763;42.714;23.244;2023-03-04T01:57:43;10.50;;;8.63;;
11414;SDS011;5763;42.714;23.244;2023-03-04T02:00:20;9.82;;;8.35;;
11414;SDS011;5763;42.714;23.244;2023-03-04T02:02:53;11.73;;;8.75;;
11414;SDS011;5763;42.714;23.244;2023-03-04T02:05:23;11.93;;;8.75;;
11414;SDS011;5763;42.714;23.244;2023-03-04T02:07:50;12.02;;;8.80;;
11414;SDS011;5763;42.714;23.244;2023-03-04T02:10:19;11.75;;;8.82;;
11414;SDS011;5763;42.714;23.244;2023-03-04T02:12:46;12.15;;;8.60;;
11414;SDS011;5763;42.714;23.244;2023-03-04T02:15:14;9.68;;;8.55;;
11414;SDS011;5763;42.714;23.244;2023-03-04T02:17:41;10.93;;;8.38;;
11414;SDS011;5763;42.714;23.244;2023-03-04T02:20:11;10.30;;;8.48;;
11414;SDS011;5763;42.714;23.244;2023-03-04T02:22:48;11.82;;;9.10;;
11414;SDS011;5763;42.714;23.244;2023-03-04T02:25:25;10.55;;;8.00;;
11414;SDS011;5763;42.714;23.244;2023-03-04T02:28:00;10.48;;;8.10;;
11414;SDS011;5763;42.714;23.244;2023-03-04T02:30:27;9.82;;;8.00;;
11414;SDS011;5763;42.714;23.244;2023-03-04T02:32:54;10.30;;;8.38;;
11414;SDS011;5763;42.714;23.244;2023-03-04T02:35:20;11.00;;;8.27;;
11414;SDS011;5763;42.714;23.244;2023-03-04T02:37:47;10.20;;;8.00;;
11414;SDS011;5763;42.714;23.244;2023-03-04T02:40:15;13.23;;;9.07;;
11414;SDS011;5763;42.714;23.244;2023-03-04T02:42:48;12.27;;;9.25;;
11414;SDS011;5763;42.714;23.244;2023-03-04T02:48:01;11.73;;;8.90;;
11414;SDS011;5763;42.714;23.244;2023-03-04T02:50:28;12.35;;;9.65;;
11414;SDS011;5763;42.714;23.244;2023-03-04T02:52:59;11.55;;;9.40;;
11414;SDS011;5763;42.714;23.244;2023-03-04T02:55:25;11.35;;;9.50;;
11414;SDS011;5763;42.714;23.244;2023-03-04T02:57:52;12.57;;;9.27;;
11414;SDS011;5763;42.714;23.244;2023-03-04T03:00:19;12.48;;;9.95;;
11414;SDS011;5763;42.714;23.244;2023-03-04T03:02:48;14.50;;;9.98;;
11414;SDS011;5763;42.714;23.244;2023-03-04T03:05:14;12.43;;;9.82;;
11414;SDS011;5763;42.714;23.244;2023-03-04T03:07:42;12.55;;;9.23;;
11414;SDS011;5763;42.714;23.244;2023-03-04T03:10:09;12.63;;;9.60;;
11414;SDS011;5763;42.714;23.244;2023-03-04T03:12:36;13.50;;;9.77;;
11414;SDS011;5763;42.714;23.244;2023-03-04T03:15:03;12.95;;;10.43;;
11414;SDS011;5763;42.714;23.244;2023-03-04T03:17:31;15.95;;;10.48;;
11414;SDS011;5763;42.714;23.244;2023-03-04T03:19:59;15.48;;;10.68;;
11414;SDS011;5763;42.714;23.244;2023-03-04T03:22:26;12.77;;;9.77;;
11414;SDS011;5763;42.714;23.244;2023-03-04T03:24:52;12.98;;;10.45;;
11414;SDS011;5763;42.714;23.244;2023-03-04T03:27:19;12.57;;;10.38;;
11414;SDS011;5763;42.714;23.244;2023-03-04T03:29:46;12.82;;;10.00;;
11414;SDS011;5763;42.714;23.244;2023-03-04T03:32:13;14.48;;;10.60;;
11414;SDS011;5763;42.714;23.244;2023-03-04T03:34:39;14.00;;;10.52;;
11414;SDS011;5763;42.714;23.244;2023-03-04T03:37:08;11.80;;;8.98;;
11414;SDS011;5763;42.714;23.244;2023-03-04T03:39:34;13.82;;;9.00;;
11414;SDS011;5763;42.714;23.244;2023-03-04T03:42:01;11.60;;;8.40;;
11414;SDS011;5763;42.714;23.244;2023-03-04T03:44:28;10.63;;;7.85;;
11414;SDS011;5763;42.714;23.244;2023-03-04T03:46:55;12.43;;;8.93;;
11414;SDS011;5763;42.714;23.244;2023-03-04T03:49:22;11.90;;;9.38;;
11414;SDS011;5763;42.714;23.244;2023-03-04T03:51:48;13.38;;;9.18;;
11414;SDS011;5763;42.714;23.244;2023-03-04T03:54:17;10.68;;;8.50;;
11414;SDS011;5763;42.714;23.244;2023-03-04T03:56:43;10.13;;;8.73;;
11414;SDS011;5763;42.714;23.244;2023-03-04T03:59:10;10.50;;;8.25;;
11414;SDS011;5763;42.714;23.244;2023-03-04T04:01:37;12.50;;;9.52;;
11414;SDS011;5763;42.714;23.244;2023-03-04T04:04:04;13.38;;;9.57;;
11414;SDS011;5763;42.714;23.244;2023-03-04T04:06:31;10.65;;;8.77;;
11414;SDS011;5763;42.714;23.244;2023-03-04T04:08:57;11.63;;;9.20;;
11414;SDS011;5763;42.714;23.244;2023-03-04T04:11:26;10.20;;;8.00;;
11414;SDS011;5763;42.714;23.244;2023-03-04T04:13:53;10.10;;;8.48;;
11414;SDS011;5763;42.714;23.244;2023-03-04T04:16:20;11.57;;;8.60;;
11414;SDS011;5763;42.714;23.244;2023-03-04T04:18:46;12.60;;;9.00;;
11414;SDS011;5763;42.714;23.244;2023-03-04T04:21:13;10.23;;;7.88;;
11414;SDS011;5763;42.714;23.244;2023-03-04T04:23:40;10.38;;;8.50;;
11414;SDS011;5763;42.714;23.244;2023-03-04T04:26:06;10.82;;;8.27;;
11414;SDS011;5763;42.714;23.244;2023-03-04T04:28:35;11.90;;;9.20;;
11414;SDS011;5763;42.714;23.244;2023-03-04T04:31:01;10.77;;;9.13;;
11414;SDS011;5763;42.714;23.244;2023-03-04T04:33:31;11.20;;;9.00;;
11414;SDS011;5763;42.714;23.244;2023-03-04T04:35:58;12.48;;;9.25;;
11414;SDS011;5763;42.714;23.244;2023-03-04T04:38:25;14.15;;;9.77;;
11414;SDS011;5763;42.714;23.244;2023-03-04T04:40:52;13.52;;;10.50;;
11414;SDS011;5763;42.714;23.244;2023-03-04T04:43:19;12.52;;;9.07;;
11414;SDS011;5763;42.714;23.244;2023-03-04T04:45:47;12.27;;;8.85;;
11414;SDS011;5763;42.714;23.244;2023-03-04T04:48:13;13.13;;;9.50;;
11414;SDS011;5763;42.714;23.244;2023-03-04T04:50:40;13.00;;;9.13;;
11414;SDS011;5763;42.714;23.244;2023-03-04T04:53:07;11.95;;;9.60;;
11414;SDS011;5763;42.714;23.244;2023-03-04T04:55:35;14.13;;;9.80;;
11414;SDS011;5763;42.714;23.244;2023-03-04T04:58:04;13.25;;;10.77;;
11414;SDS011;5763;42.714;23.244;2023-03-04T05:00:30;14.10;;;11.40;;
11414;SDS011;5763;42.714;23.244;2023-03-04T05:02:58;18.50;;;14.30;;
11414;SDS011;5763;42.714;23.244;2023-03-04T05:05:25;15.52;;;11.52;;
11414;SDS011;5763;42.714;23.244;2023-03-04T05:07:52;12.55;;;10.07;;
11414;SDS011;5763;42.714;23.244;2023-03-04T05:10:19;11.70;;;9.65;;
11414;SDS011;5763;42.714;23.244;2023-03-04T05:12:46;12.25;;;9.82;;
11414;SDS011;5763;42.714;23.244;2023-03-04T05:15:13;12.90;;;9.65;;
11414;SDS011;5763;42.714;23.244;2023-03-04T05:17:40;11.93;;;9.27;;
11414;SDS011;5763;42.714;23.244;2023-03-04T05:20:09;9.93;;;7.88;;
11414;SDS011;5763;42.714;23.244;2023-03-04T05:22:37;9.52;;;7.18;;
11414;SDS011;5763;42.714;23.244;2023-03-04T05:25:03;10.27;;;7.32;;
11414;SDS011;5763;42.714;23.244;2023-03-04T05:27:31;10.13;;;7.45;;
11414;SDS011;5763;42.714;23.244;2023-03-04T05:29:57;10.07;;;7.15;;
11414;SDS011;5763;42.714;23.244;2023-03-04T05:32:25;9.18;;;6.60;;
11414;SDS011;5763;42.714;23.244;2023-03-04T05:34:51;8.65;;;6.72;;
11414;SDS011;5763;42.714;23.244;2023-03-04T05:37:19;8.55;;;6.90;;
11414;SDS011;5763;42.714;23.244;2023-03-04T05:39:46;10.63;;;6.63;;
11414;SDS011;5763;42.714;23.244;2023-03-04T05:42:13;10.73;;;6.53;;
11414;SDS011;5763;42.714;23.244;2023-03-04T05:44:40;8.63;;;6.97;;
11414;SDS011;5763;42.714;23.244;2023-03-04T05:47:06;9.13;;;7.22;;
11414;SDS011;5763;42.714;23.244;2023-03-04T05:49:33;9.43;;;6.97;;
11414;SDS011;5763;42.714;23.244;2023-03-04T05:52:00;12.88;;;9.82;;
11414;SDS011;5763;42.714;23.244;2023-03-04T05:54:28;12.02;;;9.25;;
11414;SDS011;5763;42.714;23.244;2023-03-04T05:56:55;11.55;;;7.72;;
11414;SDS011;5763;42.714;23.244;2023-03-04T05:59:21;9.25;;;7.20;;
11414;SDS011;5763;42.714;23.244;2023-03-04T06:01:48;11.68;;;8.27;;
11414;SDS011;5763;42.714;23.244;2023-03-04T06:04:16;13.48;;;8.68;;
11414;SDS011;5763;42.714;23.244;2023-03-04T06:06:42;10.43;;;8.48;;
11414;SDS011;5763;42.714;23.244;2023-03-04T06:09:10;10.63;;;7.72;;
11414;SDS011;5763;42.714;23.244;2023-03-04T06:11:38;9.27;;;7.40;;
11414;SDS011;5763;42.714;23.244;2023-03-04T06:14:06;11.20;;;7.10;;
11414;SDS011;5763;42.714;23.244;2023-03-04T06:16:33;10.30;;;6.68;;
11414;SDS011;5763;42.714;23.244;2023-03-04T06:18:59;9.70;;;7.18;;
11414;SDS011;5763;42.714;23.244;2023-03-04T06:21:26;11.55;;;7.57;;
11414;SDS011;5763;42.714;23.244;2023-03-04T06:23:53;10.90;;;7.68;;
11414;SDS011;5763;42.714;23.244;2023-03-04T06:26:20;7.85;;;7.00;;
11414;SDS011;5763;42.714;23.244;2023-03-04T06:28:48;11.30;;;7.35;;
11414;SDS011;5763;42.714;23.244;2023-03-04T06:31:14;9.98;;;7.35;;
11414;SDS011;5763;42.714;23.244;2023-03-04T06:33:41;9.43;;;7.25;;
11414;SDS011;5763;42.714;23.244;2023-03-04T06:36:08;8.18;;;6.43;;
11414;SDS011;5763;42.714;23.244;2023-03-04T06:38:35;10.18;;;5.95;;
11414;SDS011;5763;42.714;23.244;2023-03-04T06:41:05;8.18;;;6.57;;
11414;SDS011;5763;42.714;23.244;2023-03-04T06:43:33;7.60;;;6.47;;
11414;SDS011;5763;42.714;23.244;2023-03-04T06:46:01;8.35;;;6.15;;
11414;SDS011;5763;42.714;23.244;2023-03-04T06:48:28;7.95;;;6.07;;
11414;SDS011;5763;42.714;23.244;2023-03-04T06:50:54;7.03;;;5.32;;
11414;SDS011;5763;42.714;23.244;2023-03-04T06:53:21;8.00;;;6.00;;
11414;SDS011;5763;42.714;23.244;2023-03-04T06:55:48;7.40;;;6.05;;
11414;SDS011;5763;42.714;23.244;2023-03-04T06:58:15;11.73;;;6.70;;
11414;SDS011;5763;42.714;23.244;2023-03-04T07:00:42;10.68;;;7.63;;
11414;SDS011;5763;42.714;23.244;2023-03-04T07:03:11;10.57;;;7.63;;
11414;SDS011;5763;42.714;23.244;2023-03-04T07:05:37;9.88;;;7.28;;
11414;SDS011;5763;42.714;23.244;2023-03-04T07:08:04;12.05;;;7.93;;
11414;SDS011;5763;42.714;23.244;2023-03-04T07:10:32;11.07;;;8.15;;
11414;SDS011;5763;42.714;23.244;2023-03-04T07:12:58;10.57;;;7.90;;
11414;SDS011;5763;42.714;23.244;2023-03-04T07:15:25;10.23;;;8.35;;
11414;SDS011;5763;42.714;23.244;2023-03-04T07:17:52;9.20;;;7.20;;
11414;SDS011;5763;42.714;23.244;2023-03-04T07:20:21;12.10;;;8.63;;
11414;SDS011;5763;42.714;23.244;2023-03-04T07:22:48;11.55;;;8.20;;
11414;SDS011;5763;42.714;23.244;2023-03-04T07:25:15;11.85;;;8.63;;
11414;SDS011;5763;42.714;23.244;2023-03-04T07:27:42;13.43;;;9.55;;
11414;SDS011;5763;42.714;23.244;2023-03-04T07:30:09;15.20;;;9.52;;
11414;SDS011;5763;42.714;23.244;2023-03-04T07:32:37;11.77;;;9.20;;
11414;SDS011;5763;42.714;23.244;2023-03-04T07:35:04;11.40;;;8.43;;
11414;SDS011;5763;42.714;23.244;2023-03-04T07:37:32;10.20;;;7.60;;
11414;SDS011;5763;42.714;23.244;2023-03-04T07:39:59;10.57;;;8.50;;
11414;SDS011;5763;42.714;23.244;2023-03-04T07:42:26;12.18;;;8.25;;
11414;SDS011;5763;42.714;23.244;2023-03-04T07:44:53;10.88;;;8.20;;
11414;SDS011;5763;42.714;23.244;2023-03-04T07:47:20;11.77;;;8.73;;
11414;SDS011;5763;42.714;23.244;2023-03-04T07:49:47;12.32;;;8.55;;
11414;SDS011;5763;42.714;23.244;2023-03-04T07:52:13;12.10;;;9.05;;
11414;SDS011;5763;42.714;23.244;2023-03-04T07:54:41;10.82;;;7.97;;
11414;SDS011;5763;42.714;23.244;2023-03-04T07:57:08;12.38;;;8.40;;
11414;SDS011;5763;42.714;23.244;2023-03-04T07:59:35;10.88;;;8.00;;
11414;SDS011;5763;42.714;23.244;2023-03-04T08:02:02;11.25;;;8.80;;
11414;SDS011;5763;42.714;23.244;2023-03-04T08:04:28;11.52;;;8.52;;
11414;SDS011;5763;42.714;23.244;2023-03-04T08:06:55;13.07;;;8.35;;
11414;SDS011;5763;42.714;23.244;2023-03-04T08:09:22;10.73;;;8.60;;
11414;SDS011;5763;42.714;23.244;2023-03-04T08:11:50;13.50;;;9.35;;
11414;SDS011;5763;42.714;23.244;2023-03-04T08:14:17;10.65;;;8.13;;
11414;SDS011;5763;42.714;23.244;2023-03-04T08:16:44;10.95;;;8.07;;
11414;SDS011;5763;42.714;23.244;2023-03-04T08:19:10;13.80;;;8.52;;
11414;SDS011;5763;42.714;23.244;2023-03-04T08:21:37;9.30;;;7.00;;
11414;SDS011;5763;42.714;23.244;2023-03-04T08:24:04;9.40;;;7.07;;
11414;SDS011;5763;42.714;23.244;2023-03-04T08:26:33;11.75;;;7.78;;
11414;SDS011;5763;42.714;23.244;2023-03-04T08:29:04;9.07;;;7.53;;
11414;SDS011;5763;42.714;23.244;2023-03-04T08:31:32;11.20;;;7.70;;
11414;SDS011;5763;42.714;23.244;2023-03-04T08:33:59;9.50;;;7.55;;
11414;SDS011;5763;42.714;23.244;2023-03-04T08:36:27;10.07;;;7.22;;
11414;SDS011;5763;42.714;23.244;2023-03-04T08:38:53;9.90;;;6.88;;
11414;SDS011;5763;42.714;23.244;2023-03-04T08:41:20;9.15;;;6.90;;
11414;SDS011;5763;42.714;23.244;2023-03-04T08:43:49;13.75;;;7.75;;
11414;SDS011;5763;42.714;23.244;2023-03-04T08:46:17;10.90;;;7.75;;
11414;SDS011;5763;42.714;23.244;2023-03-04T08:48:44;12.50;;;8.98;;
11414;SDS011;5763;42.714;23.244;2023-03-04T08:51:11;15.07;;;9.30;;
11414;SDS011;5763;42.714;23.244;2023-03-04T08:53:40;14.32;;;9.27;;
11414;SDS011;5763;42.714;23.244;2023-03-04T08:56:07;11.93;;;8.70;;
11414;SDS011;5763;42.714;23.244;2023-03-04T08:58:34;14.48;;;8.75;;
11414;SDS011;5763;42.714;23.244;2023-03-04T09:01:01;12.10;;;9.02;;
11414;SDS011;5763;42.714;23.244;2023-03-04T09:03:30;12.13;;;8.77;;
11414;SDS011;5763;42.714;23.244;2023-03-04T09:05:57;13.65;;;8.30;;
11414;SDS011;5763;42.714;23.244;2023-03-04T09:08:24;10.02;;;7.15;;
11414;SDS011;5763;42.714;23.244;2023-03-04T09:10:51;8.13;;;6.30;;
11414;SDS011;5763;42.714;23.244;2023-03-04T09:13:18;9.80;;;6.82;;
11414;SDS011;5763;42.714;23.244;2023-03-04T09:15:46;6.90;;;5.80;;
11414;SDS011;5763;42.714;23.244;2023-03-04T09:18:14;8.68;;;6.53;;
11414;SDS011;5763;42.714;23.244;2023-03-04T09:20:43;10.95;;;7.32;;
11414;SDS011;5763;42.714;23.244;2023-03-04T09:23:10;8.23;;;6.53;;
11414;SDS011;5763;42.714;23.244;2023-03-04T09:25:37;10.57;;;7.57;;
11414;SDS011;5763;42.714;23.244;2023-03-04T09:28:05;12.30;;;7.22;;
11414;SDS011;5763;42.714;23.244;2023-03-04T09:30:32;9.73;;;6.80;;
11414;SDS011;5763;42.714;23.244;2023-03-04T09:32:59;9.18;;;6.68;;
11414;SDS011;5763;42.714;23.244;2023-03-04T09:35:26;11.30;;;7.13;;
11414;SDS011;5763;42.714;23.244;2023-03-04T09:37:55;9.48;;;6.75;;
11414;SDS011;5763;42.714;23.244;2023-03-04T09:40:23;9.00;;;7.22;;
11414;SDS011;5763;42.714;23.244;2023-03-04T09:42:54;9.65;;;7.72;;
11414;SDS011;5763;42.714;23.244;2023-03-04T09:45:24;9.02;;;6.90;;
11414;SDS011;5763;42.714;23.244;2023-03-04T09:47:56;13.15;;;7.45;;
11414;SDS011;5763;42.714;23.244;2023-03-04T09:50:23;11.57;;;6.63;;
11414;SDS011;5763;42.714;23.244;2023-03-04T09:52:57;11.13;;;7.57;;
11414;SDS011;5763;42.714;23.244;2023-03-04T09:55:33;11.07;;;7.78;;
11414;SDS011;5763;42.714;23.244;2023-03-04T09:58:04;12.70;;;7.80;;
11414;SDS011;5763;42.714;23.244;2023-03-04T10:00:38;11.38;;;8.20;;
11414;SDS011;5763;42.714;23.244;2023-03-04T10:03:10;12.50;;;7.78;;
11414;SDS011;5763;42.714;23.244;2023-03-04T10:05:43;11.30;;;8.15;;
11414;SDS011;5763;42.714;23.244;2023-03-04T10:08:23;11.20;;;7.70;;
11414;SDS011;5763;42.714;23.244;2023-03-04T10:10:58;12.13;;;7.80;;
11414;SDS011;5763;42.714;23.244;2023-03-04T10:13:29;10.23;;;8.05;;
11414;SDS011;5763;42.714;23.244;2023-03-04T10:16:02;12.55;;;8.40;;
11414;SDS011;5763;42.714;23.244;2023-03-04T10:18:33;13.18;;;7.82;;
11414;SDS011;5763;42.714;23.244;2023-03-04T10:21:05;14.48;;;8.13;;
11414;SDS011;5763;42.714;23.244;2023-03-04T10:23:42;11.80;;;8.60;;
11414;SDS011;5763;42.714;23.244;2023-03-04T10:26:11;11.77;;;9.20;;
11414;SDS011;5763;42.714;23.244;2023-03-04T10:28:39;13.65;;;9.13;;
11414;SDS011;5763;42.714;23.244;2023-03-04T10:31:08;14.43;;;9.82;;
11414;SDS011;5763;42.714;23.244;2023-03-04T10:33:40;13.00;;;9.27;;
11414;SDS011;5763;42.714;23.244;2023-03-04T10:36:13;14.52;;;9.30;;
11414;SDS011;5763;42.714;23.244;2023-03-04T10:38:54;11.82;;;9.32;;
11414;SDS011;5763;42.714;23.244;2023-03-04T10:41:24;12.73;;;9.35;;
11414;SDS011;5763;42.714;23.244;2023-03-04T10:43:59;12.15;;;8.55;;
11414;SDS011;5763;42.714;23.244;2023-03-04T10:46:27;13.20;;;9.35;;
11414;SDS011;5763;42.714;23.244;2023-03-04T10:48:54;12.02;;;9.20;;
11414;SDS011;5763;42.714;23.244;2023-03-04T10:51:21;12.57;;;8.90;;
11414;SDS011;5763;42.714;23.244;2023-03-04T10:53:50;14.80;;;8.90;;
11414;SDS011;5763;42.714;23.244;2023-03-04T10:56:31;13.50;;;9.20;;
11414;SDS011;5763;42.714;23.244;2023-03-04T11:01:55;13.07;;;9.23;;
11414;SDS011;5763;42.714;23.244;2023-03-04T11:04:22;15.63;;;9.88;;
11414;SDS011;5763;42.714;23.244;2023-03-04T11:06:50;13.70;;;9.90;;
11414;SDS011;5763;42.714;23.244;2023-03-04T11:09:21;15.90;;;9.50;;
11414;SDS011;5763;42.714;23.244;2023-03-04T11:11:51;15.30;;;8.88;;
11414;SDS011;5763;42.714;23.244;2023-03-04T11:14:21;14.00;;;8.82;;
11414;SDS011;5763;42.714;23.244;2023-03-04T11:16:53;11.25;;;8.50;;
11414;SDS011;5763;42.714;23.244;2023-03-04T11:19:23;11.20;;;8.40;;
11414;SDS011;5763;42.714;23.244;2023-03-04T11:21:53;13.35;;;9.13;;
11414;SDS011;5763;42.714;23.244;2023-03-04T11:24:23;12.73;;;8.27;;
11414;SDS011;5763;42.714;23.244;2023-03-04T11:26:55;11.10;;;9.07;;
11414;SDS011;5763;42.714;23.244;2023-03-04T11:29:29;10.90;;;8.18;;
11414;SDS011;5763;42.714;23.244;2023-03-04T11:31:59;10.18;;;8.05;;
11414;SDS011;5763;42.714;23.244;2023-03-04T11:34:33;11.55;;;8.18;;
11414;SDS011;5763;42.714;23.244;2023-03-04T11:37:05;13.25;;;8.68;;
11414;SDS011;5763;42.714;23.244;2023-03-04T11:39:37;12.23;;;8.30;;
11414;SDS011;5763;42.714;23.244;2023-03-04T11:42:12;11.93;;;8.77;;
11414;SDS011;5763;42.714;23.244;2023-03-04T11:44:46;13.13;;;9.30;;
11414;SDS011;5763;42.714;23.244;2023-03-04T11:50:10;14.07;;;9.52;;
11414;SDS011;5763;42.714;23.244;2023-03-04T11:52:53;12.25;;;9.13;;
11414;SDS011;5763;42.714;23.244;2023-03-04T11:55:40;13.98;;;9.15;;
11414;SDS011;5763;42.714;23.244;2023-03-04T11:58:17;11.10;;;8.80;;
11414;SDS011;5763;42.714;23.244;2023-03-04T12:01:00;11.90;;;8.98;;
11414;SDS011;5763;42.714;23.244;2023-03-04T12:06:31;11.65;;;7.57;;
11414;SDS011;5763;42.714;23.244;2023-03-04T12:09:13;12.82;;;8.45;;
11414;SDS011;5763;42.714;23.244;2023-03-04T12:11:52;9.02;;;7.50;;
11414;SDS011;5763;42.714;23.244;2023-03-04T12:14:30;12.30;;;7.93;;
11414;SDS011;5763;42.714;23.244;2023-03-04T12:17:13;13.00;;;8.57;;
11414;SDS011;5763;42.714;23.244;2023-03-04T12:19:54;12.02;;;9.23;;
11414;SDS011;5763;42.714;23.244;2023-03-04T12:22:32;14.25;;;9.38;;
11414;SDS011;5763;42.714;23.244;2023-03-04T12:25:19;11.05;;;8.13;;
11414;SDS011;5763;42.714;23.244;2023-03-04T12:27:57;12.10;;;9.27;;
11414;SDS011;5763;42.714;23.244;2023-03-04T12:30:39;12.50;;;9.30;;
11414;SDS011;5763;42.714;23.244;2023-03-04T12:33:19;11.40;;;8.95;;
11414;SDS011;5763;42.714;23.244;2023-03-04T12:35:58;10.27;;;8.90;;
11414;SDS011;5763;42.714;23.244;2023-03-04T12:38:38;12.48;;;9.30;;
11414;SDS011;5763;42.714;23.244;2023-03-04T12:41:22;14.02;;;8.80;;
11414;SDS011;5763;42.714;23.244;2023-03-04T12:44:00;11.93;;;8.35;;
11414;SDS011;5763;42.714;23.244;2023-03-04T12:46:43;11.80;;;8.93;;
11414;SDS011;5763;42.714;23.244;2023-03-04T12:49:37;11.52;;;8.77;;
11414;SDS011;5763;42.714;23.244;2023-03-04T12:52:15;13.80;;;9.00;;
11414;SDS011;5763;42.714;23.244;2023-03-04T12:54:49;12.48;;;9.30;;
11414;SDS011;5763;42.714;23.244;2023-03-04T12:57:19;13.35;;;9.05;;
11414;SDS011;5763;42.714;23.244;2023-03-04T12:59:50;11.15;;;8.43;;
11414;SDS011;5763;42.714;23.244;2023-03-04T13:02:38;12.23;;;8.75;;
11414;SDS011;5763;42.714;23.244;2023-03-04T13:05:23;11.98;;;8.35;;
11414;SDS011;5763;42.714;23.244;2023-03-04T13:08:00;13.10;;;8.55;;
11414;SDS011;5763;42.714;23.244;2023-03-04T13:10:34;13.07;;;8.15;;
11414;SDS011;5763;42.714;23.244;2023-03-04T13:13:01;11.52;;;8.63;;
11414;SDS011;5763;42.714;23.244;2023-03-04T13:15:29;14.93;;;9.63;;
11414;SDS011;5763;42.714;23.244;2023-03-04T13:18:02;14.43;;;9.40;;
11414;SDS011;5763;42.714;23.244;2023-03-04T13:21:03;12.20;;;9.63;;
11414;SDS011;5763;42.714;23.244;2023-03-04T13:23:32;12.82;;;9.65;;
11414;SDS011;5763;42.714;23.244;2023-03-04T13:26:15;15.52;;;10.18;;
11414;SDS011;5763;42.714;23.244;2023-03-04T13:28:44;14.60;;;10.27;;
11414;SDS011;5763;42.714;23.244;2023-03-04T13:31:13;13.98;;;10.10;;
11414;SDS011;5763;42.714;23.244;2023-03-04T13:33:59;12.00;;;9.95;;
11414;SDS011;5763;42.714;23.244;2023-03-04T13:39:25;15.00;;;11.60;;
11414;SDS011;5763;42.714;23.244;2023-03-04T13:41:56;21.80;;;14.25;;
11414;SDS011;5763;42.714;23.244;2023-03-04T13:44:32;14.63;;;12.70;;
11414;SDS011;5763;42.714;23.244;2023-03-04T13:47:14;18.77;;;12.10;;
11414;SDS011;5763;42.714;23.244;2023-03-04T13:49:43;18.00;;;12.23;;
11414;SDS011;5763;42.714;23.244;2023-03-04T13:57:58;15.13;;;10.77;;
11414;SDS011;5763;42.714;23.244;2023-03-04T14:00:26;15.00;;;11.15;;
11414;SDS011;5763;42.714;23.244;2023-03-04T14:02:53;15.35;;;11.48;;
11414;SDS011;5763;42.714;23.244;2023-03-04T14:05:22;15.25;;;11.32;;
11414;SDS011;5763;42.714;23.244;2023-03-04T14:07:49;16.35;;;11.65;;
11414;SDS011;5763;42.714;23.244;2023-03-04T14:10:20;15.93;;;12.98;;
11414;SDS011;5763;42.714;23.244;2023-03-04T14:12:49;16.83;;;12.68;;
11414;SDS011;5763;42.714;23.244;2023-03-04T14:15:20;18.60;;;13.85;;
11414;SDS011;5763;42.714;23.244;2023-03-04T14:17:49;21.38;;;13.80;;
11414;SDS011;5763;42.714;23.244;2023-03-04T14:20:25;19.52;;;14.90;;
11414;SDS011;5763;42.714;23.244;2023-03-04T14:22:53;19.77;;;14.77;;
11414;SDS011;5763;42.714;23.244;2023-03-04T14:25:22;23.70;;;15.48;;
11414;SDS011;5763;42.714;23.244;2023-03-04T14:28:00;21.17;;;15.07;;
11414;SDS011;5763;42.714;23.244;2023-03-04T14:30:28;22.63;;;16.15;;
11414;SDS011;5763;42.714;23.244;2023-03-04T14:32:57;23.13;;;16.63;;
11414;SDS011;5763;42.714;23.244;2023-03-04T14:35:27;22.83;;;16.27;;
11414;SDS011;5763;42.714;23.244;2023-03-04T14:37:57;21.92;;;15.48;;
11414;SDS011;5763;42.714;23.244;2023-03-04T14:40:27;24.20;;;15.90;;
11414;SDS011;5763;42.714;23.244;2023-03-04T14:42:58;24.15;;;15.57;;
11414;SDS011;5763;42.714;23.244;2023-03-04T14:45:28;20.08;;;15.27;;
11414;SDS011;5763;42.714;23.244;2023-03-04T14:47:56;21.27;;;15.68;;
11414;SDS011;5763;42.714;23.244;2023-03-04T14:50:29;21.20;;;14.88;;
11414;SDS011;5763;42.714;23.244;2023-03-04T14:55:54;20.90;;;14.85;;
11414;SDS011;5763;42.714;23.244;2023-03-04T14:58:27;18.67;;;14.55;;
11414;SDS011;5763;42.714;23.244;2023-03-04T15:01:05;21.90;;;14.98;;
11414;SDS011;5763;42.714;23.244;2023-03-04T15:03:39;26.00;;;15.77;;
11414;SDS011;5763;42.714;23.244;2023-03-04T15:06:15;24.70;;;15.95;;
11414;SDS011;5763;42.714;23.244;2023-03-04T15:08:43;19.98;;;15.02;;
11414;SDS011;5763;42.714;23.244;2023-03-04T15:11:13;21.58;;;15.20;;